Date,TemperatureHighF,TemperatureAvgF,TemperatureLowF,DewpointHighF,DewpointAvgF,DewpointLowF,HumidityHigh,HumidityAvg,HumidityLow,PressureMaxIn,PressureMinIn,WindSpeedMaxMPH,WindSpeedAvgMPH,GustSpeedMaxMPH,PrecipitationSumIn
2014-1-1,27.2,21.9,15.6,14.3,10.2,7.3,75,61,47,30.38,30.19,8,0,0,0.00
2014-1-2,22.4,13.1,1.3,16.4,9.7,-1.7,89,86,65,30.36,29.84,13,2,13,0.00
2014-1-3,13.6,5.6,0.5,9.9,1.6,-4.3,88,83,74,30.41,29.71,14,2,16,0.00
2014-1-4,25.2,12.7,-2.9,19.8,7.1,-5.9,84,78,62,30.52,30.28,7,0,0,0.00
2014-1-5,38.3,29.6,18.0,35.8,24.1,14.1,95,80,56,30.33,29.92,6,0,0,0.26
2014-1-6,56.9,43.8,27.5,56.3,41.2,16.9,98,90,64,29.92,29.28,10,1,16,0.27
2014-1-7,27.5,13.9,8.0,16.9,-0.6,-7.5,70,51,39,30.24,29.50,17,2,19,0.00
2014-1-8,20.7,13.6,6.0,6.5,1.2,-5.4,67,57,47,30.47,30.23,11,1,0,0.00
2014-1-9,28.7,20.2,14.4,12.7,9.0,5.9,85,62,43,30.65,30.43,9,0,0,0.00
2014-1-10,35.9,26.9,12.6,34.3,24.2,9.7,95,89,79,30.61,30.28,2,0,0,0.02
2014-1-11,58.6,49.1,35.0,57.8,48.2,33.7,98,96,94,30.28,29.28,13,1,13,0.46
2014-1-12,52.8,42.8,35.3,51.7,34.0,26.4,96,72,58,29.97,29.28,13,1,13,0.03
2014-1-13,51.9,40.1,28.4,43.8,31.3,24.5,90,72,46,30.12,29.90,4,0,0,0.00
2014-1-14,48.1,46.6,42.4,47.0,44.8,41.3,97,93,88,29.90,29.61,7,0,0,0.66
2014-1-15,47.2,39.0,31.9,41.2,36.0,30.9,97,89,69,30.03,29.75,6,0,0,0.01
2014-1-16,40.0,36.0,31.4,37.7,34.8,30.4,97,95,90,29.93,29.84,3,0,0,0.00
2014-1-17,44.9,37.7,30.4,36.8,30.4,23.2,96,77,43,29.99,29.90,9,0,0,0.00
2014-1-18,36.8,33.1,30.1,35.5,31.3,26.1,96,93,85,29.92,29.61,5,0,0,0.21
2014-1-19,33.5,30.7,28.4,31.3,27.2,23.0,96,87,74,29.73,29.54,12,1,12,0.06
2014-1-20,39.9,33.3,24.9,30.0,25.6,11.8,83,73,55,29.86,29.50,11,1,12,0.14
2014-1-21,24.8,15.0,10.7,12.4,5.1,-0.7,88,66,49,30.07,29.86,9,1,0,0.00
2014-1-22,17.3,10.8,6.8,7.4,1.0,-3.3,86,65,47,29.90,29.64,11,2,0,0.00
2014-1-23,21.3,11.3,2.9,2.6,-1.1,-4.4,70,57,41,30.16,29.90,8,0,0,0.00
2014-1-24,18.2,11.3,5.8,2.5,-1.1,-3.7,72,57,40,30.27,30.05,11,1,0,0.00
2014-1-25,37.4,26.0,13.4,27.3,17.9,2.0,89,71,57,30.05,29.33,12,1,13,0.06
2014-1-26,24.9,18.9,13.9,18.7,6.4,-2.3,79,58,42,29.89,29.34,15,1,16,0.00
2014-1-27,43.7,29.3,19.6,38.0,19.8,5.4,94,69,39,30.00,29.53,13,1,16,0.16
2014-1-28,19.7,16.1,11.6,6.1,-1.9,-7.1,55,44,34,30.31,30.00,13,1,14,0.00
2014-1-29,25.7,19.0,14.3,8.6,1.9,-2.7,74,48,29,30.23,29.98,9,0,0,0.00
2014-1-30,30.6,20.3,11.4,12.8,6.2,-0.6,77,55,39,30.44,30.20,7,0,0,0.00
2014-1-31,40.9,31.7,18.9,23.8,19.3,12.9,87,62,40,30.20,30.01,8,0,0,0.00
2014-2-1,46.8,36.8,29.2,28.9,24.4,21.4,82,62,43,30.34,30.03,7,0,0,0.00
2014-2-2,52.4,40.3,31.3,42.2,35.4,27.6,95,83,57,30.05,29.86,7,0,0,0.03
2014-2-3,38.9,32.0,23.0,33.9,27.8,21.0,93,85,64,30.30,30.04,7,0,0,0.01
2014-2-4,33.8,26.3,16.6,25.1,21.2,14.4,93,82,63,30.46,30.29,5,0,0,0.12
2014-2-5,32.9,28.2,23.4,31.5,26.2,20.9,95,92,87,30.32,29.62,9,1,0,0.00
2014-2-6,27.5,20.9,15.5,21.2,15.6,11.1,92,80,54,30.27,29.95,6,0,0,0.00
2014-2-7,29.6,20.7,10.2,16.5,13.2,7.0,89,73,55,30.27,30.16,9,0,0,0.00
2014-2-8,28.3,21.4,12.2,14.3,9.3,5.3,82,61,43,30.30,30.12,6,0,0,0.00
2014-2-9,30.2,25.2,19.9,23.6,17.4,9.7,91,73,53,30.17,29.95,6,0,0,0.00
2014-2-10,27.6,22.0,13.9,22.3,13.3,7.5,92,70,53,30.22,29.90,10,1,12,0.00
2014-2-11,25.0,16.1,6.4,9.3,5.9,2.4,88,65,45,30.44,30.21,11,1,0,0.00
2014-2-12,27.1,16.0,4.1,12.4,2.7,-2.4,81,57,30,30.57,30.42,8,0,0,0.00
2014-2-13,33.6,27.7,17.2,32.3,25.3,12.4,96,90,80,30.42,29.00,16,1,16,0.00
2014-2-14,36.2,32.8,29.4,32.1,27.8,23.6,96,82,70,29.74,28.84,19,2,20,0.00
2014-2-15,35.8,30.2,26.1,29.6,26.1,22.9,95,85,65,29.86,29.47,12,1,12,0.01
2014-2-16,31.8,26.1,20.4,27.9,16.3,10.9,95,67,48,29.97,29.47,13,1,14,0.00
2014-2-17,28.7,19.8,10.8,11.4,2.9,-0.7,75,49,32,30.37,29.97,12,1,14,0.00
2014-2-18,32.6,21.2,8.4,31.2,17.1,3.3,95,84,66,30.38,29.89,6,0,0,0.00
2014-2-19,35.5,28.2,17.8,31.9,25.8,15.6,96,91,79,30.10,29.72,6,0,0,0.01
2014-2-20,46.7,37.6,30.1,33.6,30.3,25.8,96,77,45,30.22,29.83,9,0,0,0.58
2014-2-21,39.0,36.7,34.4,38.0,35.6,32.9,97,96,93,30.17,29.67,8,0,0,0.47
2014-2-22,51.5,40.6,30.9,36.5,30.0,25.4,97,70,38,29.97,29.84,13,1,13,0.04
2014-2-23,50.5,42.3,32.9,31.7,28.8,25.6,80,60,43,29.99,29.76,8,0,0,0.00
2014-2-24,39.8,31.9,22.4,30.1,16.2,8.6,77,52,41,29.95,29.72,13,2,14,0.00
2014-2-25,29.0,23.0,18.4,11.8,10.1,8.1,69,57,45,29.99,29.87,12,1,12,0.00
2014-2-26,30.5,20.2,12.5,15.2,6.7,-2.9,75,57,34,29.95,29.75,11,1,13,0.00
2014-2-27,28.9,18.5,7.6,20.8,6.3,-2.7,85,59,35,29.92,29.58,15,1,15,0.00
2014-2-28,24.6,15.6,7.9,2.2,-2.3,-5.7,65,45,26,30.45,29.92,15,1,15,0.00
2014-3-1,35.7,23.0,6.6,24.2,12.0,1.5,82,64,40,30.46,30.09,7,0,0,0.00
2014-3-2,39.4,33.8,30.2,26.8,23.1,18.2,74,64,53,30.09,29.95,7,0,0,0.00
2014-3-3,30.1,20.7,11.5,18.3,6.2,-0.4,64,53,42,30.30,29.98,11,1,13,0.00
2014-3-4,30.2,19.3,5.0,10.4,3.0,-1.6,78,50,33,30.39,30.25,6,0,0,0.00
2014-3-5,27.7,24.1,17.7,21.4,15.8,8.9,83,71,49,30.50,30.24,6,0,0,0.00
2014-3-6,30.6,19.1,9.5,9.9,2.7,-4.6,76,50,26,30.65,30.49,6,1,0,0.00
2014-3-7,38.2,24.9,7.5,26.7,17.0,4.5,90,73,50,30.51,29.95,6,0,0,0.00
2014-3-8,53.7,38.0,23.1,30.0,26.1,20.9,93,66,37,29.95,29.68,10,1,0,0.00
2014-3-9,40.9,33.4,27.1,22.9,15.1,9.7,65,48,31,29.94,29.85,13,1,13,0.00
2014-3-10,43.6,35.3,28.7,30.0,24.5,14.7,88,65,51,29.89,29.64,7,0,0,0.01
2014-3-11,57.4,43.6,33.3,36.7,32.0,28.6,94,67,36,29.71,29.50,12,1,12,0.00
2014-3-12,52.5,41.3,37.1,39.6,35.0,29.4,95,79,53,29.72,29.00,5,0,0,0.34
2014-3-13,37.1,22.1,16.1,35.8,15.2,2.3,95,76,50,29.95,28.98,18,3,18,0.03
2014-3-14,40.5,26.3,12.7,27.7,11.7,1.4,72,55,32,30.18,29.91,9,1,0,0.04
2014-3-15,55.2,43.4,35.9,39.0,32.3,23.9,90,66,43,29.92,29.65,20,1,26,0.02
2014-3-16,39.0,30.8,25.3,24.1,11.4,3.5,61,45,31,30.20,29.88,12,2,16,0.00
2014-3-17,30.9,22.4,15.7,8.9,1.3,-3.5,61,40,26,30.20,30.05,9,1,14,0.00
2014-3-18,40.0,26.9,16.8,20.5,12.9,2.6,78,56,40,30.36,30.17,8,0,0,0.00
2014-3-19,43.8,32.8,20.5,31.4,24.8,17.6,91,73,55,30.40,29.99,12,1,12,0.00
2014-3-20,51.1,41.8,36.0,42.9,34.5,27.7,96,77,47,30.01,29.61,12,1,13,0.31
2014-3-21,43.1,37.8,31.5,28.1,24.4,22.1,68,58,46,30.04,29.74,14,2,16,0.00
2014-3-22,56.0,39.3,25.7,42.1,27.0,20.8,82,63,39,30.06,29.65,15,1,17,0.00
2014-3-23,43.0,35.2,25.4,26.3,18.4,5.4,77,52,31,30.07,29.89,12,1,12,0.00
2014-3-24,32.6,23.6,15.7,10.1,2.4,-0.5,59,40,25,30.18,30.05,14,2,14,0.00
2014-3-25,39.7,28.8,16.2,17.4,11.5,7.7,75,50,30,30.16,29.90,8,0,0,0.00
2014-3-26,34.3,30.4,23.9,20.0,11.9,1.5,64,47,31,30.02,29.59,22,4,23,0.00
2014-3-27,46.7,31.8,19.7,18.4,5.9,0.8,51,34,20,30.33,30.02,17,1,17,0.00
2014-3-28,60.2,45.4,34.4,47.9,37.0,18.4,92,73,51,30.27,29.95,11,1,14,0.02
2014-3-29,53.1,45.1,39.7,47.3,40.5,37.2,96,85,62,30.24,29.98,10,1,12,0.70
2014-3-30,41.9,39.5,35.3,40.8,38.3,34.0,96,96,94,29.99,29.63,11,2,0,1.77
2014-3-31,39.9,36.4,34.0,35.6,33.4,30.3,95,89,74,30.00,29.68,14,2,15,0.53
2014-4-1,53.3,42.0,32.8,34.6,30.2,27.1,80,64,47,30.11,30.00,11,1,0,0.00
2014-4-2,59.2,43.9,30.5,38.6,32.1,27.5,93,66,39,30.12,30.00,7,0,0,0.00
2014-4-3,56.4,42.8,30.4,33.1,29.0,25.3,92,62,33,30.13,30.03,9,1,12,0.00
2014-4-4,46.1,40.4,35.1,35.9,32.1,28.3,93,73,53,30.16,29.89,10,1,0,0.20
2014-4-5,52.2,42.7,37.1,42.8,35.0,25.1,96,77,48,29.93,29.69,17,1,20,0.21
2014-4-6,58.4,43.6,30.7,29.2,24.8,20.5,77,51,24,30.18,29.93,10,1,0,0.00
2014-4-7,62.0,48.1,34.6,43.5,29.2,20.1,90,52,24,30.23,29.90,8,1,0,0.02
2014-4-8,66.0,54.1,45.6,57.8,48.9,34.3,97,84,56,29.90,29.30,16,1,16,0.60
2014-4-9,58.4,47.8,36.9,38.9,29.6,14.4,87,53,23,29.97,29.50,15,2,16,0.00
2014-4-10,63.4,46.9,29.2,36.4,25.0,14.9,74,45,21,30.16,29.97,10,1,13,0.00
2014-4-11,68.6,57.5,47.0,50.9,43.4,36.1,81,60,42,30.02,29.90,7,1,0,0.00
2014-4-12,69.2,56.8,44.5,47.9,39.6,31.8,94,59,27,30.20,29.96,12,1,12,0.04
2014-4-13,67.6,53.8,45.7,54.3,44.4,37.6,92,71,52,30.27,30.01,8,0,0,0.06
2014-4-14,76.4,65.4,49.9,58.5,54.7,45.3,91,69,50,30.02,29.87,15,2,16,0.00
2014-4-15,67.8,60.2,42.4,60.2,57.0,40.4,96,89,72,29.90,29.56,14,2,17,0.95
2014-4-16,44.9,37.2,30.6,40.4,25.4,17.1,95,65,41,30.61,29.72,13,2,15,0.47
2014-4-17,43.3,35.6,28.8,28.2,24.1,17.5,79,63,50,30.81,30.61,13,1,14,0.00
2014-4-18,44.7,37.4,29.4,34.2,30.7,25.8,89,77,63,30.66,30.25,8,0,0,0.00
2014-4-19,62.9,48.8,34.5,39.4,33.4,26.8,92,60,33,30.42,30.17,13,2,14,0.00
2014-4-20,55.3,45.1,32.2,33.8,27.0,13.4,83,52,19,30.52,30.34,7,1,0,0.00
2014-4-21,73.2,52.1,33.1,40.9,32.6,22.1,87,54,15,30.34,29.84,6,0,0,0.00
2014-4-22,74.6,59.1,45.7,52.0,44.4,38.5,93,62,29,29.84,29.47,8,1,0,0.06
2014-4-23,53.9,50.6,46.3,51.9,44.9,34.8,96,82,58,29.62,29.42,18,2,20,0.44
2014-4-24,57.4,48.7,40.9,35.1,27.8,20.9,65,45,30,29.92,29.60,21,4,23,0.00
2014-4-25,66.7,51.9,39.7,35.5,30.4,24.6,66,46,21,30.01,29.82,8,1,0,0.00
2014-4-26,48.5,45.1,42.2,42.5,38.9,34.8,93,80,59,29.88,29.78,7,0,0,0.21
2014-4-27,51.4,44.5,40.9,44.1,41.0,38.3,95,88,71,30.05,29.84,8,0,0,0.01
2014-4-28,58.4,48.2,38.3,41.8,38.9,35.1,89,72,51,30.23,29.99,10,1,0,0.01
2014-4-29,46.2,42.7,41.1,39.8,36.5,34.5,84,78,73,30.53,30.22,13,2,13,0.00
2014-4-30,45.2,42.2,40.2,41.2,38.5,35.7,95,87,78,30.54,30.17,8,1,0,0.41
2014-5-1,65.6,52.3,42.6,60.9,50.7,41.3,97,94,84,30.17,29.66,4,0,0,0.18
2014-5-2,69.0,59.2,49.4,56.1,44.8,38.2,96,62,34,29.80,29.65,16,1,18,0.18
2014-5-3,67.2,58.1,44.4,46.0,42.6,40.0,88,59,38,29.86,29.71,7,0,0,0.00
2014-5-4,60.9,54.3,48.3,46.0,41.3,37.2,84,62,44,29.71,29.53,16,1,19,0.00
2014-5-5,64.8,55.6,48.8,45.0,42.0,39.3,76,61,45,29.86,29.61,13,2,13,0.00
2014-5-6,64.1,53.3,41.2,41.2,36.3,29.5,88,56,32,30.04,29.82,12,1,14,0.00
2014-5-7,69.6,55.8,41.0,39.4,33.6,28.2,72,47,22,30.17,30.03,7,1,0,0.00
2014-5-8,72.7,58.2,42.0,53.9,42.6,34.3,85,59,34,30.18,30.06,8,0,0,0.00
2014-5-9,57.9,55.4,53.0,54.9,52.4,49.2,95,90,82,30.23,30.07,3,0,0,0.01
2014-5-10,80.5,67.1,56.7,65.6,60.8,53.1,96,82,49,30.08,29.74,9,1,0,0.12
2014-5-11,80.4,68.6,59.6,59.8,44.4,30.6,92,48,18,30.02,29.78,12,1,12,0.12
2014-5-12,87.8,71.3,53.0,58.4,47.2,41.5,74,46,22,30.09,29.94,10,1,12,0.00
2014-5-13,58.9,51.2,46.4,46.6,42.3,36.5,80,71,62,30.33,30.09,16,1,16,0.00
2014-5-14,68.7,57.3,44.7,54.1,47.4,40.3,86,71,52,30.33,30.24,7,0,0,0.00
2014-5-15,79.8,67.6,59.9,65.0,60.5,53.4,93,79,59,30.29,30.19,8,0,0,0.01
2014-5-16,73.1,66.1,63.3,65.0,62.5,60.6,96,89,72,30.19,29.96,10,0,0,0.19
2014-5-17,76.7,66.4,55.2,63.8,54.6,40.8,97,70,34,30.06,29.83,9,1,0,0.12
2014-5-18,70.3,58.9,47.2,49.2,44.3,37.6,79,60,36,30.10,30.00,7,0,0,0.12
2014-5-19,67.0,56.0,48.1,50.0,41.1,35.8,93,59,35,30.09,30.00,9,1,0,0.05
2014-5-20,74.0,60.2,46.7,49.7,47.0,41.9,94,66,35,30.02,29.92,13,1,16,0.01
2014-5-21,73.1,60.4,46.3,55.5,50.7,44.4,96,72,51,30.00,29.91,9,0,0,0.01
2014-5-22,65.3,57.4,50.2,57.0,53.1,48.1,95,86,69,29.95,29.86,6,0,0,0.14
2014-5-23,60.8,56.0,52.2,56.0,52.4,48.5,95,88,74,29.98,29.86,7,0,0,0.01
2014-5-24,67.0,56.9,51.3,54.9,50.7,48.2,93,81,56,30.05,29.95,5,0,0,0.01
2014-5-25,73.9,59.4,49.6,57.6,53.1,47.9,96,81,52,30.09,29.99,5,0,0,0.01
2014-5-26,78.6,65.4,52.4,61.6,57.0,50.7,95,77,49,30.01,29.78,9,0,0,0.05
2014-5-27,73.8,59.7,48.4,62.2,54.3,47.0,95,83,59,29.95,29.79,10,1,0,0.74
2014-5-28,49.6,47.6,42.5,48.4,46.2,40.9,96,95,90,30.22,29.90,10,1,12,0.06
2014-5-29,65.6,52.1,37.0,48.0,41.0,32.8,97,70,35,30.25,30.15,6,0,0,0.01
2014-5-30,75.0,58.6,44.8,55.7,49.5,42.9,95,75,40,30.16,29.98,5,0,0,0.11
2014-5-31,65.4,55.7,45.9,51.6,46.5,31.1,95,74,32,30.29,30.04,10,1,12,0.11
2014-6-1,76.2,61.5,45.0,52.2,45.2,40.3,91,59,31,30.34,30.23,6,0,0,0.00
2014-6-2,85.0,70.0,50.8,56.7,51.5,44.8,82,55,31,30.23,29.98,6,0,0,0.00
2014-6-3,82.7,68.8,55.2,62.5,56.6,46.9,89,67,48,30.02,29.87,9,1,0,0.00
2014-6-4,65.4,59.7,54.6,60.7,54.8,45.8,95,85,57,29.90,29.77,5,0,0,0.17
2014-6-5,60.9,59.3,55.1,59.9,58.0,54.0,97,95,91,29.78,29.63,6,0,0,0.59
2014-6-6,74.5,64.2,54.7,58.6,55.8,53.7,97,76,51,29.87,29.69,10,1,0,0.59
2014-6-7,84.9,70.3,56.0,60.0,56.9,52.4,89,65,39,29.93,29.85,6,0,0,0.00
2014-6-8,86.3,73.1,57.2,62.5,58.1,53.1,94,63,35,29.94,29.84,5,0,0,0.00
2014-6-9,80.8,69.4,60.9,64.8,59.0,54.7,84,70,46,29.98,29.89,7,0,0,0.00
2014-6-10,80.7,68.4,60.9,69.7,62.9,55.0,92,83,68,30.10,29.91,10,1,0,0.00
2014-6-11,69.9,62.9,57.6,56.3,54.3,51.5,88,74,54,30.18,30.09,10,1,0,0.00
2014-6-12,71.8,63.5,58.7,62.1,57.5,52.8,86,81,70,30.16,30.05,7,0,0,0.00
2014-6-13,64.8,62.2,60.4,63.8,60.3,57.6,97,94,83,30.06,29.77,5,0,0,0.53
2014-6-14,73.7,63.0,59.8,63.3,58.8,52.8,98,87,69,29.91,29.80,6,0,0,0.53
2014-6-15,80.2,67.4,54.6,60.3,54.4,50.3,89,65,44,30.05,29.90,9,1,0,0.00
2014-6-16,82.9,69.3,55.7,56.3,51.9,46.1,81,57,30,30.14,30.00,7,0,0,0.00
2014-6-17,87.4,73.1,59.8,72.4,64.7,54.1,95,76,57,30.06,29.85,5,0,0,0.15
2014-6-18,85.9,76.5,68.5,69.2,65.0,60.6,94,70,47,29.93,29.71,11,1,15,0.02
2014-6-19,84.0,75.0,62.7,63.9,56.4,42.6,86,56,31,29.96,29.88,8,1,0,0.00
2014-6-20,76.5,65.8,53.1,51.9,46.4,42.1,84,52,31,29.97,29.86,8,1,0,0.00
2014-6-21,76.0,63.7,49.6,51.2,48.1,44.3,88,59,38,29.97,29.87,8,0,0,0.00
2014-6-22,76.1,64.2,50.4,55.8,50.8,47.3,92,64,42,30.03,29.92,3,0,0,0.00
2014-6-23,82.8,67.5,51.8,59.1,53.3,48.3,95,64,39,30.17,30.03,7,0,0,0.00
2014-6-24,84.8,70.5,57.4,64.4,57.7,50.8,85,65,47,30.17,30.00,10,1,0,0.00
2014-6-25,88.8,75.7,63.6,72.4,65.8,56.6,86,72,55,30.01,29.84,10,1,0,0.00
2014-6-26,80.6,70.5,60.4,71.9,66.4,56.6,96,87,74,30.00,29.78,7,0,0,0.01
2014-6-27,79.2,66.6,56.1,57.6,51.2,39.0,96,62,29,30.20,30.00,8,1,0,0.01
2014-6-28,86.2,70.0,53.3,62.3,52.2,41.6,92,59,23,30.26,30.20,6,0,0,0.00
2014-6-29,87.5,72.3,56.3,64.5,57.8,51.5,93,64,31,30.25,30.09,7,0,0,0.00
2014-6-30,89.9,75.4,62.0,66.3,62.6,56.8,89,66,44,30.10,29.91,7,1,0,0.00
2014-7-1,89.7,78.0,67.6,74.3,68.4,61.1,91,73,57,29.93,29.78,12,1,12,0.00
2014-7-2,92.3,80.6,71.4,77.5,71.9,66.2,88,76,60,29.91,29.78,11,1,0,0.00
2014-7-3,93.3,81.0,69.8,77.8,72.9,66.9,94,77,58,30.01,29.86,18,0,20,0.26
2014-7-4,72.4,67.6,63.1,70.4,66.2,61.6,97,95,91,29.99,29.78,7,0,0,1.50
2014-7-5,79.1,68.5,56.8,63.3,54.4,44.6,97,65,35,30.00,29.76,11,1,15,1.75
2014-7-6,85.2,74.0,62.2,61.6,56.0,49.0,76,55,37,30.00,29.85,8,1,0,0.00
2014-7-7,88.8,76.4,67.3,71.4,66.6,61.4,91,73,53,29.87,29.67,10,1,12,0.01
2014-7-8,91.6,78.7,69.4,73.4,69.6,65.7,92,75,51,29.79,29.67,9,1,0,0.01
2014-7-9,88.8,79.0,71.0,69.9,67.0,64.0,87,68,48,29.93,29.63,9,1,0,0.00
2014-7-10,81.5,73.7,67.0,65.8,60.8,56.3,84,65,46,30.13,29.92,6,0,0,0.00
2014-7-11,79.6,70.6,63.5,61.2,57.6,53.4,89,66,43,30.22,30.12,9,0,0,0.00
2014-7-12,88.1,73.6,58.3,66.4,60.3,54.6,94,67,37,30.22,30.09,7,0,0,0.00
2014-7-13,86.3,75.4,65.1,68.0,63.8,59.3,87,69,46,30.11,29.89,10,1,12,0.00
2014-7-14,84.8,76.1,70.8,74.1,71.3,67.5,96,86,67,29.90,29.84,6,0,0,0.31
2014-7-15,85.4,77.0,72.1,77.2,73.6,70.9,97,89,75,29.86,29.73,9,0,0,0.01
2014-7-16,75.3,72.8,68.4,73.2,71.2,67.2,97,94,90,29.84,29.74,4,0,0,0.36
2014-7-17,81.2,70.8,61.8,67.1,62.2,59.2,97,77,51,30.07,29.84,3,0,0,0.37
2014-7-18,81.6,70.4,58.3,61.6,58.7,54.1,94,69,40,30.22,30.07,5,0,0,0.00
2014-7-19,78.8,69.4,60.2,65.9,62.3,58.5,95,79,56,30.26,30.20,5,0,0,0.00
2014-7-20,77.8,68.1,60.4,62.2,59.9,57.7,93,76,54,30.21,30.13,6,0,0,0.00
2014-7-21,79.8,69.1,59.3,63.1,60.2,56.2,95,75,48,30.20,30.14,7,0,0,0.00
2014-7-22,89.5,75.9,62.2,71.5,66.3,60.4,95,74,52,30.15,29.98,5,0,0,0.00
2014-7-23,92.0,79.4,68.8,75.5,70.5,65.1,88,75,55,29.98,29.73,8,1,0,0.00
2014-7-24,76.5,71.7,64.3,69.0,65.4,59.9,91,81,71,29.90,29.73,6,0,0,0.00
2014-7-25,81.8,70.3,58.4,62.0,58.4,53.6,90,68,47,29.98,29.89,8,0,0,0.00
2014-7-26,85.0,71.8,60.0,65.4,61.2,57.7,93,72,42,29.97,29.86,8,0,0,0.00
2014-7-27,79.0,71.2,66.2,72.3,67.9,63.0,96,89,72,29.89,29.65,7,0,1,0.09
2014-7-28,83.8,74.1,66.4,73.1,69.1,63.1,97,85,65,29.67,29.42,10,0,0,1.38
2014-7-29,80.0,69.3,62.1,63.2,59.7,57.0,92,73,53,29.94,29.54,7,0,0,0.00
2014-7-30,80.3,68.5,57.1,61.9,57.3,51.6,93,70,42,30.04,29.94,4,0,0,0.00
2014-7-31,82.2,70.1,57.2,65.6,60.2,55.0,95,73,49,30.15,30.04,7,0,0,0.00
2014-8-1,84.8,71.9,62.5,69.5,65.2,60.5,95,81,53,30.22,30.15,4,0,0,0.00
2014-8-2,69.8,67.4,62.6,67.6,63.3,58.1,95,87,76,30.22,30.11,5,0,0,0.02
2014-8-3,75.2,67.1,60.8,65.1,61.9,58.6,94,84,65,30.14,30.04,5,0,0,0.00
2014-8-4,85.8,73.7,64.4,69.3,66.0,62.6,96,79,51,30.05,29.97,4,0,0,0.00
2014-8-5,88.3,76.5,65.5,69.5,66.7,63.6,96,74,47,30.02,29.87,5,0,0,0.00
2014-8-6,81.2,73.1,66.6,67.2,62.5,56.3,90,71,48,29.87,29.76,6,0,0,0.01
2014-8-7,79.0,68.1,59.1,60.3,57.2,53.6,83,69,49,29.94,29.83,8,0,0,0.00
2014-8-8,84.0,69.6,57.6,60.5,56.9,53.4,87,66,39,30.01,29.92,7,0,0,0.00
2014-8-9,83.5,71.7,58.3,62.6,59.5,55.3,91,67,47,30.08,30.00,5,0,0,0.00
2014-8-10,86.4,72.3,59.5,62.0,58.8,54.3,92,66,37,30.12,30.07,6,0,0,0.00
2014-8-11,89.3,72.9,61.0,66.9,61.2,58.2,93,69,39,30.15,30.08,7,0,0,0.00
2014-8-12,82.5,72.0,61.1,66.7,61.9,57.5,95,73,44,30.12,30.01,9,0,0,0.00
2014-8-13,71.0,67.1,62.4,68.9,64.9,61.1,97,93,80,30.01,29.60,9,0,0,1.42
2014-8-14,75.8,65.2,57.3,61.4,56.5,52.1,97,76,46,29.86,29.65,9,0,12,0.00
2014-8-15,72.1,63.2,56.7,57.8,55.3,53.6,96,77,55,29.92,29.83,6,0,0,0.02
2014-8-16,77.7,67.0,56.6,58.6,55.9,53.1,89,69,46,29.97,29.90,6,0,0,0.00
2014-8-17,79.3,68.9,60.6,64.3,60.1,54.8,95,75,57,29.91,29.75,8,0,0,0.00
2014-8-18,78.0,66.8,57.7,58.9,54.5,50.8,88,67,41,29.88,29.78,8,0,0,0.00
2014-8-19,80.1,64.6,50.8,58.0,54.1,48.6,95,71,43,29.95,29.86,5,0,0,0.00
2014-8-20,79.8,66.6,54.3,61.5,56.4,50.8,96,72,43,30.06,29.95,7,0,0,0.00
2014-8-21,77.1,66.1,54.7,65.1,59.8,53.0,96,82,59,30.10,30.04,5,0,0,0.00
2014-8-22,71.9,66.5,61.3,64.4,61.5,57.1,95,85,66,30.10,30.06,6,0,0,0.03
2014-8-23,72.7,65.1,56.1,60.9,58.1,52.9,93,79,62,30.13,30.08,8,0,0,0.00
2014-8-24,80.3,67.2,55.7,59.9,57.3,53.0,95,73,47,30.14,30.09,5,0,0,0.00
2014-8-25,87.5,72.5,58.4,65.2,61.3,56.7,95,71,41,30.15,30.08,5,0,0,0.00
2014-8-26,89.8,74.4,62.0,68.4,64.3,60.3,95,73,41,30.16,30.02,6,0,0,0.00
2014-8-27,89.4,75.5,62.5,72.5,66.6,59.0,94,76,55,30.04,29.83,8,0,0,0.09
2014-8-28,78.5,71.0,62.2,69.9,59.2,50.8,94,69,45,29.99,29.79,6,1,0,0.00
2014-8-29,73.5,63.6,54.9,58.8,54.4,50.3,87,73,57,30.27,29.98,7,0,0,0.00
2014-8-30,79.7,65.3,52.3,61.5,57.1,50.6,97,77,48,30.30,30.13,6,0,0,0.00
2014-8-31,83.0,74.2,64.3,73.9,69.2,60.3,95,85,73,30.13,29.93,7,0,0,0.40
2014-9-1,88.3,77.2,69.2,73.6,70.5,68.1,97,82,54,29.98,29.89,6,0,0,0.01
2014-9-2,89.6,79.3,70.3,76.5,72.5,68.8,96,82,58,29.92,29.72,5,0,0,0.20
2014-9-3,82.7,73.6,65.6,71.5,63.9,58.6,97,74,46,30.08,29.69,8,0,0,0.00
2014-9-4,85.2,71.9,57.9,63.7,60.4,55.9,95,70,44,30.18,30.07,4,0,0,0.00
2014-9-5,88.8,75.5,63.8,72.0,67.3,61.2,93,77,55,30.15,29.96,5,0,0,0.00
2014-9-6,90.0,78.7,69.5,76.2,71.9,63.1,93,81,61,29.97,29.72,9,1,0,0.00
2014-9-7,77.6,67.9,58.2,63.4,57.4,46.9,96,73,35,30.20,29.91,7,0,0,0.07
2014-9-8,73.2,63.3,53.8,57.2,53.4,50.1,94,72,50,30.38,30.20,7,0,0,0.00
2014-9-9,69.9,63.8,56.2,58.3,54.7,51.1,91,73,55,30.35,30.18,6,1,0,0.00
2014-9-10,72.3,63.9,58.7,60.9,59.1,56.6,95,85,65,30.19,30.03,6,0,0,0.00
2014-9-11,78.3,69.6,62.4,68.7,64.0,58.8,93,83,70,30.03,29.76,7,0,0,0.00
2014-9-12,70.6,62.8,54.6,58.8,52.0,46.6,88,69,51,30.23,29.89,7,1,0,0.00
2014-9-13,64.9,57.6,49.3,57.5,52.1,45.6,96,82,66,30.29,30.10,8,0,16,0.19
2014-9-14,66.0,56.2,48.9,56.2,48.8,45.4,96,78,52,30.24,30.10,8,0,0,0.00
2014-9-15,64.8,53.8,42.7,49.6,45.9,41.0,95,77,52,30.25,30.10,4,0,0,0.00
2014-9-16,65.0,56.9,48.9,57.4,52.5,46.4,94,86,75,30.11,29.95,4,0,0,0.00
2014-9-17,72.5,58.0,46.5,52.7,48.4,45.1,97,74,40,30.02,29.92,8,0,0,0.00
2014-9-18,74.5,59.1,44.6,53.5,48.7,42.9,96,72,45,30.10,29.93,6,0,0,0.00
2014-9-19,57.7,50.8,40.6,39.7,37.2,33.6,85,60,47,30.43,30.32,6,1,0,0.00
2014-9-20,70.8,55.4,36.8,57.3,48.1,34.7,96,78,59,30.41,30.09,8,0,0,0.00
2014-9-21,80.7,68.6,58.7,70.7,65.0,55.6,96,89,69,30.09,29.55,9,0,0,0.05
2014-9-22,71.2,63.8,50.2,67.3,53.8,41.0,97,72,46,30.08,29.52,10,1,0,0.00
2014-9-23,70.8,54.8,41.3,49.6,45.0,39.3,95,72,44,30.43,30.08,5,0,0,0.00
2014-9-24,66.6,56.3,46.7,55.6,50.4,45.1,97,82,60,30.62,30.43,7,0,0,0.00
2014-9-25,62.0,55.9,49.4,55.0,51.3,48.0,95,85,73,30.55,30.24,3,0,0,0.00
2014-9-26,74.9,60.0,52.0,57.5,52.7,49.3,92,79,54,30.24,30.13,9,0,0,0.00
2014-9-27,83.8,65.1,50.8,60.8,55.6,49.4,97,75,39,30.18,30.11,4,0,0,0.00
2014-9-28,85.9,68.6,54.0,65.7,60.1,52.6,97,77,49,30.16,29.97,5,0,0,0.00
2014-9-29,76.0,64.2,57.3,62.9,59.4,55.4,96,85,59,30.02,29.92,7,0,0,0.00
2014-9-30,57.3,56.0,55.3,55.6,54.6,53.8,96,95,93,30.04,29.99,5,0,0,0.10
2014-10-1,57.1,56.3,56.0,56.3,55.4,54.9,97,97,96,30.11,30.01,8,1,0,0.67
2014-10-2,56.1,53.9,48.0,55.2,52.5,46.8,97,95,88,30.17,30.09,8,1,0,0.26
2014-10-3,57.6,52.0,45.4,52.2,49.5,44.3,97,91,79,30.14,29.90,7,0,0,0.02
2014-10-4,63.7,58.1,53.1,62.8,57.0,52.0,98,96,91,29.90,29.52,5,0,0,0.17
2014-10-5,61.8,52.8,41.8,60.9,45.0,37.6,97,77,44,29.95,29.54,7,0,0,0.00
2014-10-6,64.8,51.4,38.0,50.3,43.8,36.7,96,78,49,30.15,29.95,6,0,0,0.00
2014-10-7,71.7,62.0,49.4,63.6,56.6,47.5,97,84,60,30.15,29.97,9,0,0,0.02
2014-10-8,70.7,64.5,56.8,63.0,56.1,44.9,96,76,51,29.97,29.69,11,1,12,0.08
2014-10-9,63.9,54.7,44.5,44.8,41.4,37.6,87,63,43,30.00,29.87,11,1,13,0.00
2014-10-10,60.7,52.9,43.6,44.6,41.8,38.8,87,67,50,30.13,29.99,7,0,0,0.00
2014-10-11,49.5,45.9,40.5,47.9,44.0,39.1,96,93,87,30.14,30.07,3,0,0,0.31
2014-10-12,59.1,47.7,38.8,46.2,41.4,37.8,97,81,51,30.31,30.13,7,0,0,0.00
2014-10-13,62.2,51.4,38.2,55.0,46.9,36.9,97,85,71,30.37,30.25,4,0,0,0.00
2014-10-14,74.6,65.9,57.2,65.8,61.0,54.1,95,85,68,30.26,30.14,7,0,0,0.00
2014-10-15,78.1,68.5,59.7,69.0,64.6,58.6,98,88,69,30.15,29.96,8,0,0,0.01
2014-10-16,72.4,68.0,61.9,70.0,66.6,61.0,97,95,91,29.95,29.65,9,0,0,0.62
2014-10-17,70.3,62.7,57.2,61.1,57.7,53.8,98,85,58,29.70,29.58,6,0,0,0.01
2014-10-18,69.7,61.1,55.4,61.4,56.9,49.9,97,87,67,29.66,29.48,6,0,0,0.01
2014-10-19,55.4,50.4,43.3,50.1,39.6,28.0,85,67,54,29.96,29.59,10,1,0,0.01
2014-10-20,55.5,45.5,34.0,41.9,34.1,27.3,83,65,46,30.07,29.96,6,0,0,0.00
2014-10-21,64.4,53.3,44.4,57.4,49.7,41.6,94,88,76,30.00,29.89,6,0,0,0.00
2014-10-22,54.4,50.9,49.3,53.6,49.6,47.7,97,95,93,30.02,29.77,17,2,23,0.93
2014-10-23,53.9,50.7,48.2,52.1,49.6,47.1,97,96,93,29.80,29.59,14,2,17,2.17
2014-10-24,53.3,49.9,45.2,48.6,46.9,42.4,97,90,80,29.75,29.66,11,1,0,0.09
2014-10-25,62.8,50.2,42.4,48.0,44.3,40.4,94,82,49,29.77,29.49,6,0,0,0.00
2014-10-26,56.9,51.6,43.8,48.5,43.3,39.3,87,74,57,29.70,29.45,10,1,13,0.00
2014-10-27,60.4,50.7,40.8,43.9,41.6,38.1,92,72,51,30.03,29.70,9,0,0,0.00
2014-10-28,67.1,51.0,38.2,55.0,46.2,36.6,96,85,63,30.08,29.93,7,0,0,0.00
2014-10-29,72.7,57.7,48.7,62.9,53.2,46.1,98,86,61,29.94,29.75,9,0,0,0.04
2014-10-30,57.5,47.4,39.0,49.8,41.6,36.9,97,82,57,30.00,29.87,9,0,0,0.04
2014-10-31,52.6,46.1,38.2,42.1,39.5,36.4,95,79,65,30.05,29.95,8,0,0,0.00
2014-11-1,46.5,42.5,38.5,43.1,38.6,35.1,95,86,71,29.95,29.77,10,1,15,0.40
2014-11-2,40.5,38.3,33.4,36.5,30.3,19.0,94,75,46,29.84,29.63,16,2,22,0.20
2014-11-3,51.1,41.2,32.8,34.3,22.8,12.8,77,50,23,30.07,29.83,15,1,15,0.00
2014-11-4,61.3,49.4,34.7,45.1,36.4,31.5,89,63,40,30.14,29.98,5,0,0,0.00
2014-11-5,65.1,53.8,41.8,49.0,43.7,38.1,89,70,45,30.12,29.95,4,0,0,0.00
2014-11-6,49.1,45.2,41.6,46.7,42.7,38.3,95,91,85,30.11,29.77,2,0,0,0.24
2014-11-10,46.5,43.1,39.6,39.0,37.7,36.3,89,81,75,30.20,30.18,0,0,0,0.00
2014-11-11,61.1,44.0,34.9,52.0,40.4,33.2,97,88,70,30.20,30.05,6,0,0,0.00
2014-11-12,49.2,45.0,41.3,39.6,36.2,35.5,78,73,38,30.01,29.97,2,0,2,0.00
2014-11-13,48.6,42.6,32.7,36.5,31.5,27.9,92,66,46,30.09,29.95,4,0,0,0.12
2014-11-14,41.6,35.2,29.7,34.3,28.6,22.3,96,78,50,30.10,29.90,7,1,0,0.07
2014-11-15,38.2,31.2,26.0,24.6,20.8,17.4,87,67,44,30.35,30.10,8,0,0,0.07
2014-11-16,41.9,33.8,23.0,30.9,25.4,19.6,88,72,50,30.39,30.13,6,0,0,0.00
2014-11-17,45.1,39.5,36.2,44.2,37.4,30.3,97,92,68,30.13,29.43,5,0,0,0.65
2014-11-18,40.0,33.4,25.4,39.2,22.2,8.6,97,66,40,29.93,29.46,13,1,14,0.66
2014-11-19,35.6,27.9,22.4,18.4,12.3,8.0,62,52,40,30.15,29.93,14,1,14,0.00
2014-11-20,47.2,35.4,27.7,25.3,21.4,16.6,75,58,40,30.08,29.74,14,1,16,0.00
2014-11-21,34.1,29.1,24.5,20.1,13.9,8.9,69,53,42,30.43,29.92,15,1,19,0.00
2014-11-22,43.4,32.9,21.9,24.9,16.2,9.8,70,52,28,30.44,30.06,9,1,0,0.00
2014-11-23,57.4,47.2,38.9,42.7,34.0,24.8,82,60,49,30.15,30.06,8,0,0,0.00
2014-11-24,64.3,56.7,40.4,63.1,54.1,35.3,97,91,82,30.09,29.57,11,1,12,0.02
2014-11-25,61.3,55.0,43.2,55.6,42.9,30.8,96,67,36,30.12,29.69,8,0,0,0.02
2014-11-26,45.1,37.9,32.4,36.4,32.7,31.1,95,83,61,30.20,29.67,10,1,0,0.61
2014-11-27,36.1,33.1,29.7,33.2,30.8,26.9,96,91,83,30.01,29.67,9,1,0,0.19
2014-11-28,34.0,29.6,24.0,27.5,23.9,19.4,92,80,62,30.22,29.99,9,1,0,0.02
2014-11-29,33.5,26.8,18.2,23.3,18.8,15.7,92,73,53,30.36,30.22,6,0,0,0.02
2014-11-30,54.3,44.8,30.4,43.9,37.3,23.3,89,76,58,30.27,30.02,9,0,0,0.25
2014-12-1,61.5,50.9,38.8,49.1,42.2,28.8,83,72,63,30.44,30.00,11,1,14,0.25
2014-12-2,38.8,35.4,32.2,37.3,26.9,19.7,95,71,58,30.71,30.38,10,1,0,0.14
2014-12-3,49.6,42.0,35.0,48.7,40.1,28.1,98,93,67,30.38,29.87,16,1,18,0.08
2014-12-4,41.6,35.1,27.6,28.3,24.7,20.0,84,66,50,30.56,30.08,11,0,0,0.08
2014-12-5,41.3,32.9,23.3,36.2,25.8,16.6,93,75,64,30.69,30.43,6,0,0,0.17
2014-12-6,41.7,38.3,36.3,40.5,37.2,35.3,97,96,93,30.43,30.15,9,0,0,0.58
2014-12-7,37.0,31.4,20.1,35.6,20.3,3.4,96,65,44,30.70,30.24,14,2,15,0.62
2014-12-8,25.3,21.3,17.4,23.3,13.7,3.3,92,73,48,30.78,30.51,10,1,0,0.00
2014-12-9,47.8,39.0,25.4,47.0,38.0,23.3,97,96,92,30.52,29.50,14,1,18,2.22
2014-12-10,43.2,38.6,37.0,42.2,37.7,36.2,97,97,95,29.58,29.43,10,1,12,0.13
2014-12-11,37.1,33.7,31.1,36.3,32.2,28.8,97,94,91,29.80,29.44,7,0,0,0.03
2014-12-12,38.0,32.9,29.1,30.9,28.7,27.1,93,84,74,29.89,29.80,7,0,0,0.03
2014-12-13,40.6,34.4,29.7,30.8,28.2,26.2,87,78,67,29.87,29.78,7,1,13,0.00
2014-12-14,43.9,34.9,29.5,32.4,28.9,26.1,89,79,63,29.92,29.78,8,0,0,0.00
2014-12-15,41.3,33.2,27.5,31.4,28.8,25.7,95,84,66,30.16,29.91,5,0,0,0.00
2014-12-16,41.9,37.2,30.0,40.3,34.5,28.4,95,90,86,30.17,29.92,3,0,0,0.00
2014-12-17,46.9,42.4,39.6,44.6,40.1,34.3,97,92,81,29.92,29.69,9,1,0,0.29
2014-12-18,42.1,38.6,34.7,34.4,32.3,29.6,94,78,68,29.87,29.71,12,1,14,0.04
2014-12-19,36.8,32.8,27.5,29.6,25.3,21.9,82,74,66,30.15,29.86,10,1,0,0.00
2014-12-20,33.6,30.2,25.1,29.2,24.7,21.0,85,80,72,30.31,30.15,6,0,0,0.00
2014-12-21,33.7,32.2,29.6,29.8,28.1,25.9,92,85,80,30.37,30.28,5,0,0,0.00
2014-12-22,41.4,36.8,32.5,38.8,33.1,26.8,96,86,80,30.40,30.28,4,0,0,0.03
2014-12-23,45.1,43.1,37.8,44.3,42.0,36.8,97,96,94,30.29,30.14,11,1,0,0.20
2014-12-24,44.6,42.4,39.8,44.1,41.7,39.0,98,97,96,30.15,29.54,5,0,0,0.49
2014-12-25,59.0,49.6,42.5,58.4,42.8,32.0,99,79,55,29.96,29.46,15,1,17,0.14
2014-12-26,48.1,40.6,34.3,34.6,31.9,29.8,84,71,58,30.16,29.96,10,0,2,0.00
2014-12-27,51.2,41.4,33.9,37.6,33.5,29.5,85,74,58,30.22,30.01,7,0,6,0.00
2014-12-28,51.2,44.9,38.0,44.3,37.2,29.4,88,74,65,30.01,29.76,10,0,10,0.02
2014-12-29,40.2,34.0,26.8,29.4,23.5,18.3,84,66,46,30.22,29.99,9,0,9,0.00
2014-12-30,28.8,24.1,19.4,18.0,8.7,1.0,69,52,35,30.37,30.22,5,0,9,0.00
2014-12-31,28.2,20.6,14.3,13.3,9.7,6.5,80,63,40,30.33,30.13,9,0,9,0.00
2015-1-1,32.0,24.4,15.5,17.4,11.3,8.8,77,58,40,30.13,29.92,14,0,14,0.00
2015-1-2,39.3,32.9,27.4,22.5,19.0,16.2,66,56,46,30.45,29.95,10,1,10,0.00